Forester — DIUT — position and weather

sailwx.info

Track history (hours):
 
Tides and Currents Weather Stations Pressure Air Temp Water Temp Dewpoint Dewpoint Depression Visibility Wind Speed Wind Dir Waves Ship Positions

Forester

Last reported at 2017-Jul-23 17:25 UTC. Time now 2017-Jul-26 00:42 UTC.
Position N 36°47' E 003°04'.

Length 100 m; draft 5 m.

Type: Ship. MMSI: 211233870.

Date/timePositionNaut miles runAvg speedWind from/ knotsBaromVisibWave heightAir tempDewpointWater temp
2017-Jul-23 17:25N 36°47' E 003°04'0 0.0
2017-Jul-23 03:07N 36°47' E 003°04'0 0.1
2017-Jul-23 02:52N 36°47' E 003°04'0 0.0
2017-Jul-23 01:46N 36°47' E 003°04'0 0.0
2017-Jul-23 01:16N 36°47' E 003°04'0 0.0
2017-Jul-22 04:48N 36°47' E 003°04'0 0.0
2017-Jul-22 03:42N 36°47' E 003°04'0 0.0
2017-Jul-21 12:29N 36°47' E 003°04'  
2017-Jul-14 04:54N 36°21' W 002°46'410.2
2017-Jul-14 04:29N 36°22' W 002°40'5 9.7
2017-Jul-14 04:00N 36°23' W 002°35'5 9.1
2017-Jul-14 03:28N 36°24' W 002°29'4 8.7
2017-Jul-14 02:58N 36°25' W 002°24'4 9.1
2017-Jul-14 02:30N 36°26' W 002°18'5 9.6
2017-Jul-14 02:00N 36°26' W 002°13'5 9.5
2017-Jul-14 01:29N 36°29' W 002°07'5 9.9
2017-Jul-14 00:58N 36°33' W 002°03'510.3
2017-Jul-14 00:29N 36°36' W 001°58'510.1
2017-Jul-14 00:00N 36°39' W 001°54'510.0
2017-Jul-13 23:30N 36°42' W 001°49'1010.1
2017-Jul-13 22:33N 36°49' W 001°40'5 9.8
2017-Jul-13 22:04N 36°52' W 001°35'1 9.6
2017-Jul-13 22:00N 36°52' W 001°35'5 9.4
2017-Jul-13 21:30N 36°55' W 001°30'5 9.3
2017-Jul-13 21:00N 36°58' W 001°25'5 9.2
2017-Jul-13 20:30N 37°01' W 001°21'4 8.8
2017-Jul-13 20:00N 37°04' W 001°17'4 8.9
2017-Jul-13 19:30N 37°07' W 001°13'5 9.1
2017-Jul-13 19:00N 37°10' W 001°09'5 9.0
2017-Jul-13 18:30N 37°13' W 001°05'5 8.8
2017-Jul-13 17:59N 37°16' W 001°00'4 9.0
2017-Jul-13 17:30N 37°19' W 000°56'  
Track history (hours):
 
Tides and Currents Weather Stations Pressure Air Temp Water Temp Dewpoint Dewpoint Depression Visibility Wind Speed Wind Dir Waves Ship Positions

Forester

Last reported at 2017-Jul-23 17:25 UTC. Time now 2017-Jul-26 00:42 UTC.
Position N 36°47' E 003°04'.

Length 100 m; draft 5 m.

Type: Ship. MMSI: 211233870.

Date/timePositionNaut miles runAvg speedWind from/ knotsBaromVisibWave heightAir tempDewpointWater temp
2017-Jul-23 17:25N 36°47' E 003°04'0 0.0
2017-Jul-23 03:07N 36°47' E 003°04'0 0.1
2017-Jul-23 02:52N 36°47' E 003°04'0 0.0
2017-Jul-23 01:46N 36°47' E 003°04'0 0.0
2017-Jul-23 01:16N 36°47' E 003°04'0 0.0
2017-Jul-22 04:48N 36°47' E 003°04'0 0.0
2017-Jul-22 03:42N 36°47' E 003°04'0 0.0
2017-Jul-21 12:29N 36°47' E 003°04'  
2017-Jul-14 04:54N 36°21' W 002°46'410.2
2017-Jul-14 04:29N 36°22' W 002°40'5 9.7
2017-Jul-14 04:00N 36°23' W 002°35'5 9.1
2017-Jul-14 03:28N 36°24' W 002°29'4 8.7
2017-Jul-14 02:58N 36°25' W 002°24'4 9.1
2017-Jul-14 02:30N 36°26' W 002°18'5 9.6
2017-Jul-14 02:00N 36°26' W 002°13'5 9.5
2017-Jul-14 01:29N 36°29' W 002°07'5 9.9
2017-Jul-14 00:58N 36°33' W 002°03'510.3
2017-Jul-14 00:29N 36°36' W 001°58'510.1
2017-Jul-14 00:00N 36°39' W 001°54'510.0
2017-Jul-13 23:30N 36°42' W 001°49'1010.1
2017-Jul-13 22:33N 36°49' W 001°40'5 9.8
2017-Jul-13 22:04N 36°52' W 001°35'1 9.6
2017-Jul-13 22:00N 36°52' W 001°35'5 9.4
2017-Jul-13 21:30N 36°55' W 001°30'5 9.3
2017-Jul-13 21:00N 36°58' W 001°25'5 9.2
2017-Jul-13 20:30N 37°01' W 001°21'4 8.8
2017-Jul-13 20:00N 37°04' W 001°17'4 8.9
2017-Jul-13 19:30N 37°07' W 001°13'5 9.1
2017-Jul-13 19:00N 37°10' W 001°09'5 9.0
2017-Jul-13 18:30N 37°13' W 001°05'5 8.8
2017-Jul-13 17:59N 37°16' W 001°00'4 9.0
2017-Jul-13 17:30N 37°19' W 000°56'  

Dump ship's entire track history